KMEI

Key Field Airport

Meridian, Mississippi, USA
METAR KMEI 100558Z AUTO 31007KT 6SM BR OVC008 04/02 A3018 RMK AO2 CIG 005V010 SLP220 T00390022 10044 20039 400830039 51002 TSNO
Observed Flight Rules
Dec-10 @ 05:58 UTC (32 minutes ago) Instrument Flight Rules
Wind Visibility Clouds Conditions
310° at 7 knots 6 miles
  • Overcast at 800' AGL
  • Mist
Temperatures Readings
Current 4°C / 39°F
Dewpoint 2°C / 36°F
Humidity 87%
Altimeter 30.18" Hg
Pressure 1022 hPa
Elevation 89
METAR KMEI 100558Z AUTO 31007KT 6SM BR OVC008 04/02 A3018 RMK AO2 CIG 005V010 SLP220 T00390022 10044 20039 400830039 51002 TSNO
Observed Flight Rules
Dec-10 @ 05:58 UTC
(32 minutes ago)
IFR
Wind Visibility
310° at 7 knots 6 miles
Clouds
  • Overcast at 800' AGL
Conditions
  • Mist
Temperature Dewpoint
4°C / 39°F 2°C / 36°F
Humidity Altimeter Pressure
87% 30.18" Hg 1022 hPa